sensor_id;sensor_type;location;lat;lon;timestamp;P1;durP1;ratioP1;P2;durP2;ratioP2
68680;SDS011;55836;49.858;6.756;2023-09-30T00:00:25;6.80;;;4.30;;
68680;SDS011;55836;49.858;6.756;2023-09-30T00:02:51;5.77;;;3.83;;
68680;SDS011;55836;49.858;6.756;2023-09-30T00:05:17;6.40;;;4.50;;
68680;SDS011;55836;49.858;6.756;2023-09-30T00:07:44;6.37;;;4.13;;
68680;SDS011;55836;49.858;6.756;2023-09-30T00:10:10;8.40;;;4.00;;
68680;SDS011;55836;49.858;6.756;2023-09-30T00:12:36;7.17;;;3.63;;
68680;SDS011;55836;49.858;6.756;2023-09-30T00:15:02;9.50;;;4.40;;
68680;SDS011;55836;49.858;6.756;2023-09-30T00:17:29;6.20;;;3.80;;
68680;SDS011;55836;49.858;6.756;2023-09-30T00:19:54;13.00;;;4.20;;
68680;SDS011;55836;49.858;6.756;2023-09-30T00:22:20;7.53;;;3.97;;
68680;SDS011;55836;49.858;6.756;2023-09-30T00:24:45;7.63;;;4.13;;
68680;SDS011;55836;49.858;6.756;2023-09-30T00:27:11;8.23;;;3.97;;
68680;SDS011;55836;49.858;6.756;2023-09-30T00:29:37;5.70;;;3.87;;
68680;SDS011;55836;49.858;6.756;2023-09-30T00:32:03;9.03;;;5.13;;
68680;SDS011;55836;49.858;6.756;2023-09-30T00:34:31;8.97;;;4.63;;
68680;SDS011;55836;49.858;6.756;2023-09-30T00:36:58;6.70;;;4.00;;
68680;SDS011;55836;49.858;6.756;2023-09-30T00:39:23;6.43;;;4.53;;
68680;SDS011;55836;49.858;6.756;2023-09-30T00:41:52;7.23;;;4.40;;
68680;SDS011;55836;49.858;6.756;2023-09-30T00:44:19;6.83;;;4.23;;
68680;SDS011;55836;49.858;6.756;2023-09-30T00:46:44;7.43;;;4.43;;
68680;SDS011;55836;49.858;6.756;2023-09-30T00:49:10;9.03;;;4.20;;
68680;SDS011;55836;49.858;6.756;2023-09-30T00:51:38;6.40;;;3.73;;
68680;SDS011;55836;49.858;6.756;2023-09-30T00:54:04;6.97;;;4.23;;
68680;SDS011;55836;49.858;6.756;2023-09-30T00:56:31;8.00;;;3.73;;
68680;SDS011;55836;49.858;6.756;2023-09-30T00:58:58;9.73;;;4.63;;
68680;SDS011;55836;49.858;6.756;2023-09-30T01:01:24;7.63;;;4.23;;
68680;SDS011;55836;49.858;6.756;2023-09-30T01:03:50;8.70;;;3.97;;
68680;SDS011;55836;49.858;6.756;2023-09-30T01:06:16;5.40;;;3.77;;
68680;SDS011;55836;49.858;6.756;2023-09-30T01:08:42;5.30;;;3.63;;
68680;SDS011;55836;49.858;6.756;2023-09-30T01:11:08;6.97;;;4.07;;
68680;SDS011;55836;49.858;6.756;2023-09-30T01:13:34;6.27;;;3.63;;
68680;SDS011;55836;49.858;6.756;2023-09-30T01:16:07;5.60;;;4.10;;
68680;SDS011;55836;49.858;6.756;2023-09-30T01:18:35;6.27;;;3.63;;
68680;SDS011;55836;49.858;6.756;2023-09-30T01:21:02;5.43;;;3.13;;
68680;SDS011;55836;49.858;6.756;2023-09-30T01:23:30;6.63;;;4.03;;
68680;SDS011;55836;49.858;6.756;2023-09-30T01:25:56;5.17;;;3.87;;
68680;SDS011;55836;49.858;6.756;2023-09-30T01:28:21;5.00;;;3.30;;
68680;SDS011;55836;49.858;6.756;2023-09-30T01:30:48;6.07;;;3.97;;
68680;SDS011;55836;49.858;6.756;2023-09-30T01:33:13;5.57;;;3.77;;
68680;SDS011;55836;49.858;6.756;2023-09-30T01:35:42;7.50;;;4.40;;
68680;SDS011;55836;49.858;6.756;2023-09-30T01:38:07;5.17;;;3.87;;
68680;SDS011;55836;49.858;6.756;2023-09-30T01:40:33;7.90;;;4.37;;
68680;SDS011;55836;49.858;6.756;2023-09-30T01:42:58;5.97;;;3.60;;
68680;SDS011;55836;49.858;6.756;2023-09-30T01:45:24;7.30;;;4.43;;
68680;SDS011;55836;49.858;6.756;2023-09-30T01:47:50;4.37;;;3.67;;
68680;SDS011;55836;49.858;6.756;2023-09-30T01:50:15;5.83;;;4.00;;
68680;SDS011;55836;49.858;6.756;2023-09-30T01:52:42;5.27;;;4.10;;
68680;SDS011;55836;49.858;6.756;2023-09-30T01:55:07;11.33;;;4.67;;
68680;SDS011;55836;49.858;6.756;2023-09-30T01:57:33;8.20;;;4.37;;
68680;SDS011;55836;49.858;6.756;2023-09-30T01:59:59;9.63;;;4.40;;
68680;SDS011;55836;49.858;6.756;2023-09-30T02:02:24;6.73;;;3.87;;
68680;SDS011;55836;49.858;6.756;2023-09-30T02:04:51;5.53;;;3.73;;
68680;SDS011;55836;49.858;6.756;2023-09-30T02:07:18;6.53;;;3.87;;
68680;SDS011;55836;49.858;6.756;2023-09-30T02:09:44;8.33;;;3.97;;
68680;SDS011;55836;49.858;6.756;2023-09-30T02:12:10;5.43;;;3.97;;
68680;SDS011;55836;49.858;6.756;2023-09-30T02:14:35;7.13;;;4.57;;
68680;SDS011;55836;49.858;6.756;2023-09-30T02:17:03;7.17;;;4.00;;
68680;SDS011;55836;49.858;6.756;2023-09-30T02:19:29;6.17;;;4.50;;
68680;SDS011;55836;49.858;6.756;2023-09-30T02:21:56;9.13;;;3.80;;
68680;SDS011;55836;49.858;6.756;2023-09-30T02:24:22;7.20;;;4.13;;
68680;SDS011;55836;49.858;6.756;2023-09-30T02:26:48;6.10;;;4.23;;
68680;SDS011;55836;49.858;6.756;2023-09-30T02:29:13;5.57;;;4.07;;
68680;SDS011;55836;49.858;6.756;2023-09-30T02:31:39;9.57;;;4.97;;
68680;SDS011;55836;49.858;6.756;2023-09-30T02:34:06;6.50;;;4.30;;
68680;SDS011;55836;49.858;6.756;2023-09-30T02:36:32;7.60;;;4.33;;
68680;SDS011;55836;49.858;6.756;2023-09-30T02:38:58;8.83;;;4.87;;
68680;SDS011;55836;49.858;6.756;2023-09-30T02:41:25;8.37;;;4.47;;
68680;SDS011;55836;49.858;6.756;2023-09-30T02:43:51;6.63;;;4.50;;
68680;SDS011;55836;49.858;6.756;2023-09-30T02:46:16;8.97;;;4.87;;
68680;SDS011;55836;49.858;6.756;2023-09-30T02:48:42;10.37;;;6.27;;
68680;SDS011;55836;49.858;6.756;2023-09-30T02:51:11;10.30;;;5.73;;
68680;SDS011;55836;49.858;6.756;2023-09-30T02:53:37;6.83;;;5.30;;
68680;SDS011;55836;49.858;6.756;2023-09-30T02:56:02;11.97;;;6.30;;
68680;SDS011;55836;49.858;6.756;2023-09-30T02:58:29;20.93;;;7.17;;
68680;SDS011;55836;49.858;6.756;2023-09-30T03:00:55;42.23;;;7.67;;
68680;SDS011;55836;49.858;6.756;2023-09-30T03:03:21;18.17;;;7.73;;
68680;SDS011;55836;49.858;6.756;2023-09-30T03:05:47;8.97;;;5.23;;
68680;SDS011;55836;49.858;6.756;2023-09-30T03:08:15;6.33;;;4.30;;
68680;SDS011;55836;49.858;6.756;2023-09-30T03:10:40;8.47;;;4.20;;
68680;SDS011;55836;49.858;6.756;2023-09-30T03:13:06;7.10;;;4.50;;
68680;SDS011;55836;49.858;6.756;2023-09-30T03:15:33;6.00;;;4.37;;
68680;SDS011;55836;49.858;6.756;2023-09-30T03:18:03;5.50;;;4.10;;
68680;SDS011;55836;49.858;6.756;2023-09-30T03:20:29;6.93;;;4.13;;
68680;SDS011;55836;49.858;6.756;2023-09-30T03:22:56;8.97;;;4.77;;
68680;SDS011;55836;49.858;6.756;2023-09-30T03:25:22;5.43;;;4.20;;
68680;SDS011;55836;49.858;6.756;2023-09-30T03:27:48;12.63;;;5.10;;
68680;SDS011;55836;49.858;6.756;2023-09-30T03:30:15;9.43;;;5.73;;
68680;SDS011;55836;49.858;6.756;2023-09-30T03:32:41;19.13;;;6.17;;
68680;SDS011;55836;49.858;6.756;2023-09-30T03:35:08;17.17;;;6.10;;
68680;SDS011;55836;49.858;6.756;2023-09-30T03:37:45;16.23;;;6.50;;
68680;SDS011;55836;49.858;6.756;2023-09-30T03:40:12;7.77;;;5.33;;
68680;SDS011;55836;49.858;6.756;2023-09-30T03:42:45;15.10;;;5.63;;
68680;SDS011;55836;49.858;6.756;2023-09-30T03:45:14;23.93;;;6.60;;
68680;SDS011;55836;49.858;6.756;2023-09-30T03:47:40;58.63;;;8.27;;
68680;SDS011;55836;49.858;6.756;2023-09-30T03:50:07;40.63;;;6.80;;
68680;SDS011;55836;49.858;6.756;2023-09-30T03:52:39;12.70;;;6.00;;
68680;SDS011;55836;49.858;6.756;2023-09-30T03:55:09;5.87;;;4.30;;
68680;SDS011;55836;49.858;6.756;2023-09-30T03:57:39;9.70;;;4.50;;
68680;SDS011;55836;49.858;6.756;2023-09-30T04:00:05;8.13;;;4.47;;
68680;SDS011;55836;49.858;6.756;2023-09-30T04:02:31;9.87;;;5.23;;
68680;SDS011;55836;49.858;6.756;2023-09-30T04:04:57;8.83;;;5.17;;
68680;SDS011;55836;49.858;6.756;2023-09-30T04:07:24;6.70;;;4.40;;
68680;SDS011;55836;49.858;6.756;2023-09-30T04:09:52;7.90;;;5.00;;
68680;SDS011;55836;49.858;6.756;2023-09-30T04:12:21;8.77;;;5.27;;
68680;SDS011;55836;49.858;6.756;2023-09-30T04:14:50;16.43;;;6.03;;
68680;SDS011;55836;49.858;6.756;2023-09-30T04:17:17;10.27;;;5.53;;
68680;SDS011;55836;49.858;6.756;2023-09-30T04:19:42;15.77;;;4.87;;
68680;SDS011;55836;49.858;6.756;2023-09-30T04:22:08;13.93;;;4.97;;
68680;SDS011;55836;49.858;6.756;2023-09-30T04:24:34;7.27;;;4.63;;
68680;SDS011;55836;49.858;6.756;2023-09-30T04:26:59;6.60;;;4.50;;
68680;SDS011;55836;49.858;6.756;2023-09-30T04:29:28;5.67;;;4.47;;
68680;SDS011;55836;49.858;6.756;2023-09-30T04:31:54;5.97;;;3.83;;
68680;SDS011;55836;49.858;6.756;2023-09-30T04:34:21;6.77;;;3.90;;
68680;SDS011;55836;49.858;6.756;2023-09-30T04:36:47;6.70;;;4.07;;
68680;SDS011;55836;49.858;6.756;2023-09-30T04:39:12;6.00;;;4.10;;
68680;SDS011;55836;49.858;6.756;2023-09-30T04:41:39;5.13;;;3.97;;
68680;SDS011;55836;49.858;6.756;2023-09-30T04:44:06;4.33;;;3.43;;
68680;SDS011;55836;49.858;6.756;2023-09-30T04:46:35;6.33;;;3.80;;
68680;SDS011;55836;49.858;6.756;2023-09-30T04:49:05;7.90;;;4.50;;
68680;SDS011;55836;49.858;6.756;2023-09-30T04:51:34;10.40;;;5.50;;
68680;SDS011;55836;49.858;6.756;2023-09-30T04:54:00;12.33;;;5.43;;
68680;SDS011;55836;49.858;6.756;2023-09-30T04:56:27;9.53;;;5.83;;
68680;SDS011;55836;49.858;6.756;2023-09-30T04:58:52;7.93;;;5.80;;
68680;SDS011;55836;49.858;6.756;2023-09-30T05:01:18;7.67;;;5.33;;
68680;SDS011;55836;49.858;6.756;2023-09-30T05:03:46;9.07;;;4.80;;
68680;SDS011;55836;49.858;6.756;2023-09-30T05:06:15;5.63;;;4.33;;
68680;SDS011;55836;49.858;6.756;2023-09-30T05:08:41;4.60;;;3.80;;
68680;SDS011;55836;49.858;6.756;2023-09-30T05:11:06;5.67;;;4.80;;
68680;SDS011;55836;49.858;6.756;2023-09-30T05:13:32;8.27;;;4.73;;
68680;SDS011;55836;49.858;6.756;2023-09-30T05:15:59;7.77;;;3.87;;
68680;SDS011;55836;49.858;6.756;2023-09-30T05:18:24;5.57;;;3.80;;
68680;SDS011;55836;49.858;6.756;2023-09-30T05:20:53;6.97;;;3.60;;
68680;SDS011;55836;49.858;6.756;2023-09-30T05:23:18;6.80;;;4.60;;
68680;SDS011;55836;49.858;6.756;2023-09-30T05:25:44;5.20;;;3.80;;
68680;SDS011;55836;49.858;6.756;2023-09-30T05:28:10;5.30;;;4.00;;
68680;SDS011;55836;49.858;6.756;2023-09-30T05:30:38;5.97;;;4.10;;
68680;SDS011;55836;49.858;6.756;2023-09-30T05:33:05;7.40;;;4.30;;
68680;SDS011;55836;49.858;6.756;2023-09-30T05:35:31;5.40;;;3.97;;
68680;SDS011;55836;49.858;6.756;2023-09-30T05:37:57;5.77;;;4.40;;
68680;SDS011;55836;49.858;6.756;2023-09-30T05:40:23;6.97;;;5.30;;
68680;SDS011;55836;49.858;6.756;2023-09-30T05:42:55;12.17;;;5.90;;
68680;SDS011;55836;49.858;6.756;2023-09-30T05:45:25;7.20;;;5.17;;
68680;SDS011;55836;49.858;6.756;2023-09-30T05:47:56;8.20;;;5.77;;
68680;SDS011;55836;49.858;6.756;2023-09-30T05:50:22;8.27;;;4.73;;
68680;SDS011;55836;49.858;6.756;2023-09-30T05:52:51;5.47;;;4.90;;
68680;SDS011;55836;49.858;6.756;2023-09-30T05:55:18;24.27;;;6.33;;
68680;SDS011;55836;49.858;6.756;2023-09-30T05:57:50;9.23;;;5.73;;
68680;SDS011;55836;49.858;6.756;2023-09-30T06:00:19;19.13;;;6.70;;
68680;SDS011;55836;49.858;6.756;2023-09-30T06:02:53;8.23;;;5.37;;
68680;SDS011;55836;49.858;6.756;2023-09-30T06:05:18;14.97;;;6.33;;
68680;SDS011;55836;49.858;6.756;2023-09-30T06:07:45;7.17;;;5.17;;
68680;SDS011;55836;49.858;6.756;2023-09-30T06:10:11;6.50;;;5.17;;
68680;SDS011;55836;49.858;6.756;2023-09-30T06:12:37;18.23;;;7.00;;
68680;SDS011;55836;49.858;6.756;2023-09-30T06:15:03;17.83;;;6.30;;
68680;SDS011;55836;49.858;6.756;2023-09-30T06:17:29;10.97;;;6.40;;
68680;SDS011;55836;49.858;6.756;2023-09-30T06:19:58;59.27;;;8.90;;
68680;SDS011;55836;49.858;6.756;2023-09-30T06:22:32;37.87;;;7.80;;
68680;SDS011;55836;49.858;6.756;2023-09-30T06:25:00;20.90;;;7.77;;
68680;SDS011;55836;49.858;6.756;2023-09-30T06:27:29;36.40;;;7.00;;
68680;SDS011;55836;49.858;6.756;2023-09-30T06:29:54;32.97;;;7.90;;
68680;SDS011;55836;49.858;6.756;2023-09-30T06:32:20;30.47;;;8.33;;
68680;SDS011;55836;49.858;6.756;2023-09-30T06:34:46;40.57;;;7.73;;
68680;SDS011;55836;49.858;6.756;2023-09-30T06:37:11;74.37;;;8.47;;
68680;SDS011;55836;49.858;6.756;2023-09-30T06:39:37;44.77;;;6.93;;
68680;SDS011;55836;49.858;6.756;2023-09-30T06:42:02;42.30;;;8.10;;
68680;SDS011;55836;49.858;6.756;2023-09-30T06:44:28;27.27;;;7.80;;
68680;SDS011;55836;49.858;6.756;2023-09-30T06:46:56;69.37;;;8.90;;
68680;SDS011;55836;49.858;6.756;2023-09-30T06:49:21;102.77;;;9.60;;
68680;SDS011;55836;49.858;6.756;2023-09-30T06:51:47;121.20;;;9.77;;
68680;SDS011;55836;49.858;6.756;2023-09-30T06:54:12;69.23;;;8.90;;
68680;SDS011;55836;49.858;6.756;2023-09-30T06:56:38;14.93;;;7.33;;
68680;SDS011;55836;49.858;6.756;2023-09-30T06:59:04;17.10;;;7.57;;
68680;SDS011;55836;49.858;6.756;2023-09-30T07:01:31;7.93;;;5.77;;
68680;SDS011;55836;49.858;6.756;2023-09-30T07:03:57;11.87;;;6.00;;
68680;SDS011;55836;49.858;6.756;2023-09-30T07:06:26;8.40;;;5.93;;
68680;SDS011;55836;49.858;6.756;2023-09-30T07:08:51;10.80;;;6.07;;
68680;SDS011;55836;49.858;6.756;2023-09-30T07:11:26;8.90;;;6.13;;
68680;SDS011;55836;49.858;6.756;2023-09-30T07:13:57;14.87;;;7.23;;
68680;SDS011;55836;49.858;6.756;2023-09-30T07:16:23;7.87;;;6.10;;
68680;SDS011;55836;49.858;6.756;2023-09-30T07:18:49;9.10;;;5.50;;
68680;SDS011;55836;49.858;6.756;2023-09-30T07:21:15;8.60;;;5.60;;
68680;SDS011;55836;49.858;6.756;2023-09-30T07:23:41;9.10;;;6.40;;
68680;SDS011;55836;49.858;6.756;2023-09-30T07:26:07;12.67;;;9.07;;
68680;SDS011;55836;49.858;6.756;2023-09-30T07:28:33;21.47;;;7.80;;
68680;SDS011;55836;49.858;6.756;2023-09-30T07:30:58;14.70;;;7.00;;
68680;SDS011;55836;49.858;6.756;2023-09-30T07:33:24;11.33;;;8.63;;
68680;SDS011;55836;49.858;6.756;2023-09-30T07:35:50;11.37;;;8.10;;
68680;SDS011;55836;49.858;6.756;2023-09-30T07:38:16;16.97;;;9.53;;
68680;SDS011;55836;49.858;6.756;2023-09-30T07:40:42;14.77;;;8.97;;
68680;SDS011;55836;49.858;6.756;2023-09-30T07:43:08;14.23;;;9.07;;
68680;SDS011;55836;49.858;6.756;2023-09-30T07:45:33;13.43;;;9.30;;
68680;SDS011;55836;49.858;6.756;2023-09-30T07:47:59;14.03;;;9.53;;
68680;SDS011;55836;49.858;6.756;2023-09-30T07:50:28;19.53;;;10.97;;
68680;SDS011;55836;49.858;6.756;2023-09-30T07:52:53;14.77;;;10.13;;
68680;SDS011;55836;49.858;6.756;2023-09-30T07:55:19;14.93;;;10.37;;
68680;SDS011;55836;49.858;6.756;2023-09-30T07:57:44;20.60;;;12.13;;
68680;SDS011;55836;49.858;6.756;2023-09-30T08:00:11;18.97;;;10.40;;
68680;SDS011;55836;49.858;6.756;2023-09-30T08:02:41;16.73;;;10.90;;
68680;SDS011;55836;49.858;6.756;2023-09-30T08:05:07;17.23;;;10.20;;
68680;SDS011;55836;49.858;6.756;2023-09-30T08:07:33;12.60;;;10.10;;
68680;SDS011;55836;49.858;6.756;2023-09-30T08:09:59;22.20;;;10.07;;
68680;SDS011;55836;49.858;6.756;2023-09-30T08:12:25;20.63;;;10.40;;
68680;SDS011;55836;49.858;6.756;2023-09-30T08:14:50;15.83;;;9.93;;
68680;SDS011;55836;49.858;6.756;2023-09-30T08:17:19;16.30;;;9.33;;
68680;SDS011;55836;49.858;6.756;2023-09-30T08:19:44;11.67;;;9.03;;
68680;SDS011;55836;49.858;6.756;2023-09-30T08:22:12;18.13;;;10.07;;
68680;SDS011;55836;49.858;6.756;2023-09-30T08:24:38;15.17;;;10.60;;
68680;SDS011;55836;49.858;6.756;2023-09-30T08:27:04;12.83;;;9.67;;
68680;SDS011;55836;49.858;6.756;2023-09-30T08:29:32;13.13;;;8.87;;
68680;SDS011;55836;49.858;6.756;2023-09-30T08:32:01;13.20;;;9.07;;
68680;SDS011;55836;49.858;6.756;2023-09-30T08:34:27;14.27;;;9.40;;
68680;SDS011;55836;49.858;6.756;2023-09-30T08:36:53;14.60;;;9.37;;
68680;SDS011;55836;49.858;6.756;2023-09-30T08:39:19;13.97;;;9.37;;
68680;SDS011;55836;49.858;6.756;2023-09-30T08:41:45;17.00;;;9.33;;
68680;SDS011;55836;49.858;6.756;2023-09-30T08:44:11;13.33;;;8.87;;
68680;SDS011;55836;49.858;6.756;2023-09-30T08:46:37;14.03;;;9.40;;
68680;SDS011;55836;49.858;6.756;2023-09-30T08:49:05;11.07;;;8.97;;
68680;SDS011;55836;49.858;6.756;2023-09-30T08:51:32;13.73;;;9.63;;
68680;SDS011;55836;49.858;6.756;2023-09-30T08:53:58;13.63;;;9.47;;
68680;SDS011;55836;49.858;6.756;2023-09-30T08:56:25;12.80;;;9.83;;
68680;SDS011;55836;49.858;6.756;2023-09-30T08:58:54;12.30;;;8.30;;
68680;SDS011;55836;49.858;6.756;2023-09-30T09:01:23;15.03;;;9.53;;
68680;SDS011;55836;49.858;6.756;2023-09-30T09:03:50;11.10;;;8.30;;
68680;SDS011;55836;49.858;6.756;2023-09-30T09:06:18;9.03;;;7.87;;
68680;SDS011;55836;49.858;6.756;2023-09-30T09:08:44;9.80;;;8.23;;
68680;SDS011;55836;49.858;6.756;2023-09-30T09:11:10;12.67;;;8.97;;
68680;SDS011;55836;49.858;6.756;2023-09-30T09:13:45;9.97;;;8.40;;
68680;SDS011;55836;49.858;6.756;2023-09-30T09:16:16;10.47;;;7.73;;
68680;SDS011;55836;49.858;6.756;2023-09-30T09:18:45;9.87;;;8.40;;
68680;SDS011;55836;49.858;6.756;2023-09-30T09:21:17;9.23;;;7.07;;
68680;SDS011;55836;49.858;6.756;2023-09-30T09:23:46;11.83;;;8.10;;
68680;SDS011;55836;49.858;6.756;2023-09-30T09:26:22;8.77;;;7.87;;
68680;SDS011;55836;49.858;6.756;2023-09-30T09:28:59;10.53;;;8.30;;
68680;SDS011;55836;49.858;6.756;2023-09-30T09:31:32;10.30;;;7.80;;
68680;SDS011;55836;49.858;6.756;2023-09-30T09:34:12;10.47;;;7.63;;
68680;SDS011;55836;49.858;6.756;2023-09-30T09:36:40;9.60;;;8.07;;
68680;SDS011;55836;49.858;6.756;2023-09-30T09:39:05;10.97;;;7.43;;
68680;SDS011;55836;49.858;6.756;2023-09-30T09:41:31;9.70;;;8.20;;
68680;SDS011;55836;49.858;6.756;2023-09-30T09:43:57;11.70;;;8.53;;
68680;SDS011;55836;49.858;6.756;2023-09-30T09:46:24;11.37;;;8.87;;
68680;SDS011;55836;49.858;6.756;2023-09-30T09:48:52;10.10;;;8.93;;
68680;SDS011;55836;49.858;6.756;2023-09-30T09:51:19;10.70;;;8.63;;
68680;SDS011;55836;49.858;6.756;2023-09-30T09:53:46;9.07;;;8.13;;
68680;SDS011;55836;49.858;6.756;2023-09-30T09:56:15;9.07;;;7.67;;
68680;SDS011;55836;49.858;6.756;2023-09-30T09:58:41;11.30;;;8.30;;
68680;SDS011;55836;49.858;6.756;2023-09-30T10:01:09;11.37;;;8.70;;
68680;SDS011;55836;49.858;6.756;2023-09-30T10:03:35;10.43;;;8.30;;
68680;SDS011;55836;49.858;6.756;2023-09-30T10:06:03;8.60;;;7.80;;
68680;SDS011;55836;49.858;6.756;2023-09-30T10:08:39;13.47;;;8.43;;
68680;SDS011;55836;49.858;6.756;2023-09-30T10:11:10;9.97;;;8.17;;
68680;SDS011;55836;49.858;6.756;2023-09-30T10:13:57;10.93;;;7.97;;
68680;SDS011;55836;49.858;6.756;2023-09-30T10:19:09;10.80;;;7.50;;
68680;SDS011;55836;49.858;6.756;2023-09-30T10:21:36;8.83;;;7.93;;
68680;SDS011;55836;49.858;6.756;2023-09-30T10:24:48;9.00;;;8.10;;
68680;SDS011;55836;49.858;6.756;2023-09-30T10:30:05;8.27;;;7.40;;
68680;SDS011;55836;49.858;6.756;2023-09-30T10:37:45;8.33;;;7.47;;
68680;SDS011;55836;49.858;6.756;2023-09-30T10:40:27;11.07;;;7.77;;
68680;SDS011;55836;49.858;6.756;2023-09-30T10:42:54;8.80;;;7.43;;
68680;SDS011;55836;49.858;6.756;2023-09-30T10:50:53;9.43;;;7.80;;
68680;SDS011;55836;49.858;6.756;2023-09-30T10:53:20;13.33;;;7.87;;
68680;SDS011;55836;49.858;6.756;2023-09-30T10:55:46;8.47;;;7.03;;
68680;SDS011;55836;49.858;6.756;2023-09-30T10:58:19;9.43;;;7.23;;
68680;SDS011;55836;49.858;6.756;2023-09-30T11:00:54;9.47;;;6.30;;
68680;SDS011;55836;49.858;6.756;2023-09-30T11:03:21;8.03;;;6.83;;
68680;SDS011;55836;49.858;6.756;2023-09-30T11:05:47;9.13;;;6.70;;
68680;SDS011;55836;49.858;6.756;2023-09-30T11:08:13;7.87;;;6.63;;
68680;SDS011;55836;49.858;6.756;2023-09-30T11:10:51;8.67;;;6.77;;
68680;SDS011;55836;49.858;6.756;2023-09-30T11:13:18;9.80;;;6.37;;
68680;SDS011;55836;49.858;6.756;2023-09-30T11:15:44;6.77;;;5.93;;
68680;SDS011;55836;49.858;6.756;2023-09-30T11:18:13;8.77;;;6.03;;
68680;SDS011;55836;49.858;6.756;2023-09-30T11:20:40;9.73;;;6.30;;
68680;SDS011;55836;49.858;6.756;2023-09-30T11:23:09;9.97;;;6.00;;
68680;SDS011;55836;49.858;6.756;2023-09-30T11:25:40;7.50;;;5.93;;
68680;SDS011;55836;49.858;6.756;2023-09-30T11:28:15;8.03;;;5.60;;
68680;SDS011;55836;49.858;6.756;2023-09-30T11:33:31;7.17;;;5.30;;
68680;SDS011;55836;49.858;6.756;2023-09-30T11:35:57;6.73;;;5.67;;
68680;SDS011;55836;49.858;6.756;2023-09-30T11:38:30;7.93;;;5.30;;
68680;SDS011;55836;49.858;6.756;2023-09-30T11:41:03;5.43;;;4.80;;
68680;SDS011;55836;49.858;6.756;2023-09-30T11:43:31;5.57;;;4.43;;
68680;SDS011;55836;49.858;6.756;2023-09-30T11:46:10;9.20;;;4.83;;
68680;SDS011;55836;49.858;6.756;2023-09-30T11:48:39;7.30;;;4.90;;
68680;SDS011;55836;49.858;6.756;2023-09-30T11:51:21;7.13;;;4.67;;
68680;SDS011;55836;49.858;6.756;2023-09-30T11:53:49;10.13;;;5.70;;
68680;SDS011;55836;49.858;6.756;2023-09-30T11:56:15;12.27;;;5.00;;
68680;SDS011;55836;49.858;6.756;2023-09-30T11:58:41;7.53;;;4.63;;
68680;SDS011;55836;49.858;6.756;2023-09-30T12:01:07;12.00;;;5.30;;
68680;SDS011;55836;49.858;6.756;2023-09-30T12:03:35;7.50;;;4.70;;
68680;SDS011;55836;49.858;6.756;2023-09-30T12:06:04;7.73;;;4.67;;
68680;SDS011;55836;49.858;6.756;2023-09-30T12:08:35;7.73;;;4.83;;
68680;SDS011;55836;49.858;6.756;2023-09-30T12:11:02;7.03;;;4.00;;
68680;SDS011;55836;49.858;6.756;2023-09-30T12:13:29;8.37;;;4.77;;
68680;SDS011;55836;49.858;6.756;2023-09-30T12:15:54;8.67;;;4.73;;
68680;SDS011;55836;49.858;6.756;2023-09-30T12:18:20;8.50;;;4.60;;
68680;SDS011;55836;49.858;6.756;2023-09-30T12:20:49;7.40;;;4.53;;
68680;SDS011;55836;49.858;6.756;2023-09-30T12:23:17;7.63;;;4.57;;
68680;SDS011;55836;49.858;6.756;2023-09-30T12:25:43;7.37;;;4.57;;
68680;SDS011;55836;49.858;6.756;2023-09-30T12:28:08;6.00;;;4.40;;
68680;SDS011;55836;49.858;6.756;2023-09-30T12:30:34;7.43;;;4.30;;
68680;SDS011;55836;49.858;6.756;2023-09-30T12:33:00;9.40;;;5.57;;
68680;SDS011;55836;49.858;6.756;2023-09-30T12:35:26;7.47;;;4.30;;
68680;SDS011;55836;49.858;6.756;2023-09-30T12:37:51;6.73;;;4.03;;
68680;SDS011;55836;49.858;6.756;2023-09-30T12:40:18;6.77;;;4.17;;
68680;SDS011;55836;49.858;6.756;2023-09-30T12:42:44;10.43;;;5.10;;
68680;SDS011;55836;49.858;6.756;2023-09-30T12:45:10;7.03;;;4.30;;
68680;SDS011;55836;49.858;6.756;2023-09-30T12:47:36;8.47;;;5.47;;
68680;SDS011;55836;49.858;6.756;2023-09-30T12:50:01;7.10;;;4.33;;
68680;SDS011;55836;49.858;6.756;2023-09-30T12:52:28;8.97;;;4.57;;
68680;SDS011;55836;49.858;6.756;2023-09-30T12:54:55;7.63;;;4.43;;
68680;SDS011;55836;49.858;6.756;2023-09-30T12:57:20;9.60;;;4.50;;
68680;SDS011;55836;49.858;6.756;2023-09-30T12:59:46;7.27;;;4.00;;
68680;SDS011;55836;49.858;6.756;2023-09-30T13:02:14;9.27;;;4.43;;
68680;SDS011;55836;49.858;6.756;2023-09-30T13:04:40;8.30;;;4.37;;
68680;SDS011;55836;49.858;6.756;2023-09-30T13:07:11;7.77;;;4.50;;
68680;SDS011;55836;49.858;6.756;2023-09-30T13:09:38;8.60;;;4.97;;
68680;SDS011;55836;49.858;6.756;2023-09-30T13:12:04;7.60;;;4.63;;
68680;SDS011;55836;49.858;6.756;2023-09-30T13:14:29;7.17;;;4.50;;
68680;SDS011;55836;49.858;6.756;2023-09-30T13:16:55;8.17;;;4.67;;
68680;SDS011;55836;49.858;6.756;2023-09-30T13:19:21;6.57;;;4.17;;
68680;SDS011;55836;49.858;6.756;2023-09-30T13:21:47;8.97;;;4.70;;
68680;SDS011;55836;49.858;6.756;2023-09-30T13:24:17;7.53;;;4.50;;
68680;SDS011;55836;49.858;6.756;2023-09-30T13:26:46;7.50;;;4.40;;
68680;SDS011;55836;49.858;6.756;2023-09-30T13:29:13;7.63;;;4.20;;
68680;SDS011;55836;49.858;6.756;2023-09-30T13:31:41;14.53;;;6.00;;
68680;SDS011;55836;49.858;6.756;2023-09-30T13:34:07;8.87;;;5.40;;
68680;SDS011;55836;49.858;6.756;2023-09-30T13:36:33;11.10;;;5.23;;
68680;SDS011;55836;49.858;6.756;2023-09-30T13:38:59;7.10;;;3.87;;
68680;SDS011;55836;49.858;6.756;2023-09-30T13:41:26;7.00;;;4.50;;
68680;SDS011;55836;49.858;6.756;2023-09-30T13:43:52;12.10;;;6.10;;
68680;SDS011;55836;49.858;6.756;2023-09-30T13:46:18;6.53;;;4.00;;
68680;SDS011;55836;49.858;6.756;2023-09-30T13:48:43;7.63;;;4.10;;
68680;SDS011;55836;49.858;6.756;2023-09-30T13:51:09;6.77;;;3.90;;
68680;SDS011;55836;49.858;6.756;2023-09-30T13:53:35;8.30;;;4.33;;
68680;SDS011;55836;49.858;6.756;2023-09-30T13:56:01;7.60;;;4.10;;
68680;SDS011;55836;49.858;6.756;2023-09-30T13:58:31;9.83;;;4.10;;
68680;SDS011;55836;49.858;6.756;2023-09-30T14:00:56;8.00;;;4.33;;
68680;SDS011;55836;49.858;6.756;2023-09-30T14:03:22;7.73;;;4.30;;
68680;SDS011;55836;49.858;6.756;2023-09-30T14:05:50;6.37;;;3.70;;
68680;SDS011;55836;49.858;6.756;2023-09-30T14:08:18;7.13;;;4.50;;
68680;SDS011;55836;49.858;6.756;2023-09-30T14:10:43;6.57;;;4.30;;
68680;SDS011;55836;49.858;6.756;2023-09-30T14:13:09;7.50;;;4.17;;
68680;SDS011;55836;49.858;6.756;2023-09-30T14:15:35;6.60;;;3.73;;
68680;SDS011;55836;49.858;6.756;2023-09-30T14:18:01;8.20;;;4.53;;
68680;SDS011;55836;49.858;6.756;2023-09-30T14:20:27;5.30;;;3.50;;
68680;SDS011;55836;49.858;6.756;2023-09-30T14:22:53;8.27;;;3.87;;
68680;SDS011;55836;49.858;6.756;2023-09-30T14:25:21;5.87;;;3.60;;
68680;SDS011;55836;49.858;6.756;2023-09-30T14:27:47;5.50;;;3.67;;
68680;SDS011;55836;49.858;6.756;2023-09-30T14:30:16;7.00;;;3.60;;
68680;SDS011;55836;49.858;6.756;2023-09-30T14:32:42;7.73;;;3.87;;
68680;SDS011;55836;49.858;6.756;2023-09-30T14:35:08;5.53;;;3.37;;
68680;SDS011;55836;49.858;6.756;2023-09-30T14:37:35;5.63;;;3.53;;
68680;SDS011;55836;49.858;6.756;2023-09-30T14:40:01;6.77;;;3.70;;
68680;SDS011;55836;49.858;6.756;2023-09-30T14:42:31;6.57;;;3.80;;
68680;SDS011;55836;49.858;6.756;2023-09-30T14:44:56;6.43;;;3.60;;
68680;SDS011;55836;49.858;6.756;2023-09-30T14:47:22;7.80;;;3.80;;
68680;SDS011;55836;49.858;6.756;2023-09-30T14:49:48;5.33;;;2.97;;
68680;SDS011;55836;49.858;6.756;2023-09-30T14:52:14;6.93;;;4.00;;
68680;SDS011;55836;49.858;6.756;2023-09-30T14:54:40;4.73;;;3.37;;
68680;SDS011;55836;49.858;6.756;2023-09-30T14:57:06;5.80;;;3.40;;
68680;SDS011;55836;49.858;6.756;2023-09-30T14:59:33;6.57;;;3.70;;
68680;SDS011;55836;49.858;6.756;2023-09-30T15:01:59;5.43;;;3.50;;